Time;durP1;ratioP1;P1;durP2;ratioP2;P2;SDS_P1;SDS_P2;PMS_P1;PMS_P2;Temp;Humidity;BMP_temperature;BMP_pressure;BME280_temperature;BME280_humidity;BME280_pressure;Samples;Min_cycle;Max_cycle;Signal;HPM_P1;HPM_P2
2022/11/19 00:02:11;;;;;;;19.10;4.83;;;5.30;99.90;;;;;;5011992;28;20178;-59
2022/11/19 00:04:36;;;;;;;16.67;4.73;;;5.50;99.90;;;;;;5017344;28;20170;-59
2022/11/19 00:07:02;;;;;;;13.00;4.27;;;5.60;99.90;;;;;;5012808;28;20202;-59
2022/11/19 00:09:28;;;;;;;15.60;4.03;;;5.10;99.90;;;;;;5015534;28;20182;-59
2022/11/19 00:14:38;;;;;;;16.30;3.37;;;5.50;99.90;;;;;;5011917;28;20208;-59
2022/11/19 00:17:04;;;;;;;12.23;2.83;;;5.30;99.90;;;;;;5012560;28;20321;-59
2022/11/19 00:19:30;;;;;;;15.03;3.53;;;;;;;;;;5028740;28;20714;-59
2022/11/19 00:21:55;;;;;;;11.33;2.90;;;5.30;99.90;;;;;;5024000;28;20176;-59
2022/11/19 00:24:21;;;;;;;9.73;2.90;;;5.40;99.90;;;;;;5020233;28;20558;-59
2022/11/19 00:26:47;;;;;;;8.33;2.70;;;;;;;;;;5014742;28;20906;-59
2022/11/19 00:29:13;;;;;;;6.03;2.37;;;5.20;99.90;;;;;;5030659;28;20178;-59
2022/11/19 00:31:39;;;;;;;15.43;2.57;;;5.00;99.90;;;;;;5012079;28;20638;-59
2022/11/19 00:34:04;;;;;;;9.70;2.77;;;5.10;99.90;;;;;;5016575;28;20178;-60
2022/11/19 00:36:30;;;;;;;7.93;3.10;;;5.10;99.90;;;;;;5011937;28;20297;-59
2022/11/19 00:38:55;;;;;;;11.13;3.47;;;5.30;99.90;;;;;;5027040;28;20528;-59
2022/11/19 00:41:22;;;;;;;15.87;2.93;;;;;;;;;;5030709;28;20227;-59
2022/11/19 00:43:48;;;;;;;10.37;2.83;;;5.20;99.90;;;;;;5029837;28;20269;-59
2022/11/19 00:46:21;;;;;;;10.80;2.97;;;5.10;99.90;;;;;;5013810;28;20182;-59
2022/11/19 00:48:48;;;;;;;9.00;3.53;;;5.20;99.90;;;;;;5023274;28;20182;-59
2022/11/19 00:51:15;;;;;;;16.87;3.37;;;5.10;99.90;;;;;;5030836;28;20455;-59
2022/11/19 00:53:41;;;;;;;14.20;3.63;;;5.10;99.90;;;;;;5019736;28;20201;-60
2022/11/19 00:56:10;;;;;;;16.63;4.13;;;5.00;99.90;;;;;;5011773;28;20206;-59
2022/11/19 00:58:36;;;;;;;11.37;4.20;;;5.00;99.90;;;;;;5022251;28;20193;-59
2022/11/19 01:01:02;;;;;;;13.67;3.60;;;5.00;99.90;;;;;;5014418;28;20538;-59
2022/11/19 01:03:28;;;;;;;16.73;3.77;;;5.10;99.90;;;;;;5005874;28;20233;-60
2022/11/19 01:05:54;;;;;;;12.93;4.03;;;3.30;99.90;;;;;;5026168;28;20657;-58
2022/11/19 01:08:20;;;;;;;10.50;4.40;;;;;;;;;;5025335;28;20188;-61
2022/11/19 01:10:46;;;;;;;15.17;5.43;;;5.00;99.90;;;;;;5029602;28;20201;-59
2022/11/19 01:15:56;;;;;;;20.40;5.27;;;;;;;;;;5027116;28;20309;-59
2022/11/19 01:18:21;;;;;;;17.20;5.07;;;4.90;99.90;;;;;;5017247;28;20270;-58
2022/11/19 01:20:47;;;;;;;20.03;5.10;;;4.80;99.90;;;;;;5018808;28;20178;-58
2022/11/19 01:23:13;;;;;;;20.33;5.40;;;5.00;99.90;;;;;;5011170;28;20185;-59
2022/11/19 01:25:39;;;;;;;14.07;5.17;;;5.20;99.90;;;;;;5026538;28;20233;-58
2022/11/19 01:28:05;;;;;;;13.87;5.47;;;4.80;99.90;;;;;;5029826;28;20189;-57
2022/11/19 01:30:31;;;;;;;13.40;4.37;;;4.90;99.90;;;;;;5031314;28;20265;-57
2022/11/19 01:32:57;;;;;;;14.77;3.57;;;5.00;99.90;;;;;;5012708;28;20188;-57
2022/11/19 01:35:22;;;;;;;18.40;3.80;;;5.10;99.90;;;;;;5029564;28;20169;-57
2022/11/19 01:37:50;;;;;;;9.47;3.50;;;5.00;99.90;;;;;;5030608;28;20181;-57
2022/11/19 01:40:15;;;;;;;7.57;3.50;;;4.90;99.90;;;;;;5029446;28;20557;-57
2022/11/19 01:42:52;;;;;;;18.50;4.53;;;4.90;99.90;;;;;;5029094;28;20188;-57
2022/11/19 01:45:43;;;;;;;19.97;4.80;;;4.80;99.90;;;;;;5030198;28;20182;-57
2022/11/19 01:48:21;;;;;;;13.83;4.40;;;4.90;99.90;;;;;;5011636;28;20612;-57
2022/11/19 01:50:51;;;;;;;20.53;4.40;;;4.70;99.90;;;;;;5018651;28;20252;-57
2022/11/19 01:53:18;;;;;;;16.37;4.30;;;5.20;99.90;;;;;;5017200;28;20194;-57
2022/11/19 01:55:45;;;;;;;13.77;4.83;;;4.90;99.90;;;;;;5011407;28;20218;-57
2022/11/19 01:58:15;;;;;;;9.93;3.60;;;5.10;99.90;;;;;;5026904;28;20182;-57
2022/11/19 02:00:41;;;;;;;10.57;4.30;;;;;;;;;;5012840;28;20186;-57
2022/11/19 02:03:09;;;;;;;15.13;4.43;;;4.90;99.90;;;;;;5020116;28;20182;-57
2022/11/19 02:05:35;;;;;;;15.60;4.37;;;4.90;99.90;;;;;;5029047;28;20624;-57
2022/11/19 02:08:05;;;;;;;10.83;4.30;;;4.80;99.90;;;;;;5018260;28;20182;-57
2022/11/19 02:10:48;;;;;;;12.30;3.17;;;5.10;99.90;;;;;;5018145;28;20656;-57
2022/11/19 02:13:43;;;;;;;14.80;3.40;;;4.70;99.90;;;;;;5010852;28;20189;-57
2022/11/19 02:16:19;;;;;;;13.10;3.90;;;4.80;99.90;;;;;;5024775;28;20221;-57
2022/11/19 02:19:11;;;;;;;18.50;3.53;;;4.90;99.90;;;;;;5014084;28;20185;-57
2022/11/19 02:21:52;;;;;;;16.50;4.97;;;4.80;99.90;;;;;;5014543;28;20230;-58
2022/11/19 02:24:56;;;;;;;17.10;4.47;;;4.90;99.90;;;;;;5014413;28;20240;-57
2022/11/19 02:27:22;;;;;;;15.57;4.60;;;4.80;99.90;;;;;;5005675;28;20751;-58
2022/11/19 02:30:10;;;;;;;16.37;5.10;;;5.10;99.90;;;;;;5019256;28;20261;-57
2022/11/19 02:32:57;;;;;;;19.90;5.20;;;4.50;99.90;;;;;;5007884;28;20175;-57
2022/11/19 02:35:46;;;;;;;13.07;3.90;;;4.80;99.90;;;;;;5014561;28;20205;-57
2022/11/19 02:38:24;;;;;;;11.83;3.73;;;4.80;99.90;;;;;;5031447;28;20193;-57
2022/11/19 02:46:52;;;;;;;16.13;3.60;;;4.70;99.90;;;;;;5033649;28;20189;-57
2022/11/19 02:49:21;;;;;;;14.07;3.50;;;4.70;99.90;;;;;;5020130;28;20263;-57
2022/11/19 02:51:48;;;;;;;13.10;3.90;;;4.80;99.90;;;;;;5028225;28;20183;-57
2022/11/19 02:54:17;;;;;;;14.13;3.60;;;4.70;99.90;;;;;;5014225;28;20269;-58
2022/11/19 02:56:52;;;;;;;11.50;3.23;;;4.60;99.90;;;;;;5014251;28;20288;-58
2022/11/19 03:04:56;;;;;;;19.00;4.07;;;4.70;99.90;;;;;;5013201;28;20205;-57
2022/11/19 03:07:21;;;;;;;13.50;3.77;;;4.60;99.90;;;;;;5019177;28;20669;-56
2022/11/19 03:09:55;;;;;;;19.17;4.40;;;4.60;99.90;;;;;;5030897;28;20185;-57
2022/11/19 03:12:45;;;;;;;20.97;4.30;;;4.60;99.90;;;;;;5014885;28;20189;-57
2022/11/19 03:18:08;;;;;;;17.27;3.87;;;;;;;;;;5021931;28;20233;-57
2022/11/19 03:20:39;;;;;;;12.67;3.70;;;4.50;99.90;;;;;;5026161;28;20186;-57
2022/11/19 03:23:10;;;;;;;13.43;4.23;;;4.30;99.90;;;;;;5024406;28;20272;-57
2022/11/19 03:25:46;;;;;;;17.07;4.17;;;4.40;99.90;;;;;;5014987;28;20179;-57
2022/11/19 03:28:17;;;;;;;9.60;3.57;;;4.40;99.90;;;;;;5013779;28;20182;-56
2022/11/19 03:30:46;;;;;;;19.30;4.23;;;4.30;99.90;;;;;;5028503;28;20182;-56
2022/11/19 03:33:41;;;;;;;15.87;3.87;;;4.40;99.90;;;;;;5032369;28;20178;-56
2022/11/19 03:36:11;;;;;;;12.50;4.10;;;4.40;99.90;;;;;;5002129;28;20218;-56
2022/11/19 03:38:48;;;;;;;11.80;4.10;;;4.40;99.90;;;;;;5024100;28;20269;-56
2022/11/19 03:41:17;;;;;;;16.47;4.27;;;4.40;99.90;;;;;;5028808;28;20587;-56
2022/11/19 03:43:47;;;;;;;12.53;4.30;;;4.40;99.90;;;;;;5013156;28;20179;-57
2022/11/19 03:46:16;;;;;;;16.07;4.40;;;4.40;99.90;;;;;;5016476;28;20181;-57
2022/11/19 03:48:45;;;;;;;11.20;4.63;;;4.40;99.90;;;;;;5032839;28;20181;-57
2022/11/19 03:51:14;;;;;;;16.53;4.70;;;4.10;99.90;;;;;;5019124;28;20186;-57
2022/11/19 03:53:40;;;;;;;13.93;4.27;;;4.30;99.90;;;;;;5030892;28;20206;-57
2022/11/19 03:56:10;;;;;;;16.50;4.33;;;4.40;99.90;;;;;;5026545;28;20218;-57
2022/11/19 03:58:42;;;;;;;18.53;4.43;;;4.50;99.90;;;;;;5013968;28;20179;-57
2022/11/19 04:01:09;;;;;;;15.43;4.53;;;4.40;99.90;;;;;;5032331;28;20264;-57
2022/11/19 04:03:35;;;;;;;11.07;3.90;;;4.50;99.90;;;;;;5032425;28;20312;-57
2022/11/19 04:06:02;;;;;;;15.53;4.47;;;4.40;99.90;;;;;;5031262;28;20209;-57
2022/11/19 04:08:27;;;;;;;13.70;4.00;;;4.60;99.90;;;;;;5028491;28;20644;-57
2022/11/19 04:10:53;;;;;;;15.33;3.90;;;4.70;99.90;;;;;;5025196;28;20182;-57
2022/11/19 04:13:19;;;;;;;13.33;3.83;;;4.90;99.90;;;;;;5016985;28;20676;-57
2022/11/19 04:15:44;;;;;;;16.70;3.93;;;5.60;99.90;;;;;;5028715;28;20181;-57
2022/11/19 04:18:10;;;;;;;16.97;4.07;;;5.10;99.90;;;;;;5027868;28;20598;-57
2022/11/19 04:20:35;;;;;;;12.97;3.50;;;5.10;99.90;;;;;;5026697;28;20258;-57
2022/11/19 04:23:01;;;;;;;12.97;3.57;;;5.20;99.90;;;;;;5012576;28;20174;-57
2022/11/19 04:25:27;;;;;;;11.57;3.70;;;5.10;99.90;;;;;;5013764;28;20193;-57
2022/11/19 04:27:52;;;;;;;10.87;3.87;;;5.10;99.90;;;;;;5019170;28;20185;-57
2022/11/19 04:30:18;;;;;;;19.67;4.50;;;;;;;;;;5031569;28;20182;-57
2022/11/19 04:32:44;;;;;;;14.77;4.77;;;;;;;;;;5018826;28;20217;-57
2022/11/19 04:35:12;;;;;;;13.33;4.17;;;;;;;;;;5012491;28;20179;-57
2022/11/19 04:37:38;;;;;;;13.87;4.00;;;4.80;99.90;;;;;;5022052;28;20305;-57
2022/11/19 04:40:04;;;;;;;15.33;4.70;;;4.90;99.90;;;;;;5024325;28;20268;-61
2022/11/19 04:42:30;;;;;;;15.63;5.00;;;;;;;;;;5031809;28;20189;-57
2022/11/19 04:44:56;;;;;;;17.90;4.53;;;4.70;99.90;;;;;;5031568;28;20181;-57
2022/11/19 04:47:21;;;;;;;19.50;4.80;;;5.30;99.90;;;;;;5017892;28;20182;-57
2022/11/19 04:49:47;;;;;;;15.33;4.30;;;4.90;99.90;;;;;;5025587;28;20210;-57
2022/11/19 04:52:12;;;;;;;16.27;4.67;;;4.40;99.90;;;;;;5031831;28;20174;-57
2022/11/19 04:54:39;;;;;;;13.30;4.27;;;4.70;99.90;;;;;;5030915;28;20217;-57
2022/11/19 04:57:05;;;;;;;16.40;4.53;;;4.70;99.90;;;;;;5026716;28;20622;-57
2022/11/19 04:59:30;;;;;;;14.37;3.57;;;4.40;99.90;;;;;;5019718;28;20178;-57
2022/11/19 05:01:56;;;;;;;12.27;3.77;;;4.40;99.90;;;;;;5030992;28;20210;-58
2022/11/19 05:04:21;;;;;;;17.27;4.30;;;4.40;99.90;;;;;;5031403;28;20295;-57
2022/11/19 05:06:47;;;;;;;9.83;3.77;;;4.40;99.90;;;;;;5031631;28;20208;-57
2022/11/19 05:09:12;;;;;;;12.10;3.33;;;4.60;99.90;;;;;;5017874;28;20456;-57
2022/11/19 05:11:38;;;;;;;13.43;3.80;;;4.60;99.90;;;;;;5023116;28;20257;-57
2022/11/19 05:14:03;;;;;;;18.60;4.33;;;4.60;99.90;;;;;;5026254;28;20181;-56
2022/11/19 05:16:29;;;;;;;8.27;3.67;;;4.00;99.90;;;;;;5018788;28;20225;-56
2022/11/19 05:18:55;;;;;;;14.40;3.87;;;4.40;99.90;;;;;;5022498;28;20606;-56
2022/11/19 05:21:20;;;;;;;14.60;4.20;;;4.40;99.90;;;;;;5026926;28;20178;-57
2022/11/19 05:23:46;;;;;;;14.03;3.87;;;4.50;99.90;;;;;;5012307;28;20561;-56
2022/11/19 05:26:11;;;;;;;14.70;4.50;;;4.50;99.90;;;;;;5012408;28;20296;-56
2022/11/19 05:28:37;;;;;;;15.50;4.10;;;4.60;99.90;;;;;;5030832;28;20545;-56
2022/11/19 05:31:03;;;;;;;18.93;3.73;;;4.30;99.90;;;;;;5031435;28;20264;-57
2022/11/19 05:33:28;;;;;;;11.60;3.80;;;2.40;99.90;;;;;;5031064;28;20181;-56
2022/11/19 05:35:54;;;;;;;11.10;4.00;;;4.60;99.90;;;;;;5025027;28;20633;-56
2022/11/19 05:38:19;;;;;;;16.57;4.60;;;4.60;99.90;;;;;;5011688;28;20183;-56
2022/11/19 05:40:46;;;;;;;16.40;4.43;;;;;;;;;;5030351;28;20636;-56
2022/11/19 05:43:13;;;;;;;15.60;4.17;;;4.40;99.90;;;;;;5030657;28;20186;-56
2022/11/19 05:45:38;;;;;;;10.50;4.20;;;4.50;99.90;;;;;;5029290;28;20172;-56
2022/11/19 05:48:05;;;;;;;12.57;4.20;;;4.40;99.90;;;;;;5031216;28;20177;-59
2022/11/19 05:50:31;;;;;;;13.53;4.10;;;4.40;99.90;;;;;;5028001;28;20204;-56
2022/11/19 05:52:58;;;;;;;15.60;4.10;;;4.40;99.90;;;;;;5031025;28;20699;-56
2022/11/19 05:55:23;;;;;;;15.40;4.23;;;4.30;99.90;;;;;;5028859;28;20232;-57
2022/11/19 05:57:49;;;;;;;13.87;4.83;;;4.40;99.90;;;;;;5032440;28;20688;-57
2022/11/19 06:00:17;;;;;;;16.57;4.33;;;4.10;99.90;;;;;;5034756;28;20166;-57
2022/11/19 06:02:43;;;;;;;13.10;4.13;;;4.00;99.90;;;;;;5034661;28;20212;-56
2022/11/19 06:05:09;;;;;;;13.23;4.17;;;4.00;99.90;;;;;;5034289;28;20240;-57
2022/11/19 06:07:34;;;;;;;15.27;4.43;;;4.00;99.90;;;;;;5034829;28;20204;-56
2022/11/19 06:10:00;;;;;;;12.47;4.47;;;4.30;99.90;;;;;;5029457;28;20253;-57
2022/11/19 06:12:25;;;;;;;16.50;4.03;;;3.90;99.90;;;;;;5032970;28;20531;-57
2022/11/19 06:14:52;;;;;;;18.23;4.40;;;;;;;;;;5027122;28;20186;-56
2022/11/19 06:17:17;;;;;;;16.57;4.60;;;4.00;99.90;;;;;;5029012;28;20241;-56
2022/11/19 06:19:43;;;;;;;13.83;4.03;;;4.20;99.90;;;;;;5028426;28;20182;-57
2022/11/19 06:22:08;;;;;;;22.53;4.50;;;4.00;99.90;;;;;;5034587;28;20177;-57
2022/11/19 06:24:34;;;;;;;19.63;4.10;;;;;;;;;;5031182;28;20256;-57
2022/11/19 06:27:00;;;;;;;12.90;3.80;;;4.40;99.90;;;;;;5014601;28;20178;-57
2022/11/19 06:29:26;;;;;;;13.30;3.93;;;;;;;;;;5014661;28;20179;-57
2022/11/19 06:31:52;;;;;;;11.27;4.20;;;4.00;99.90;;;;;;5014649;28;20649;-57
2022/11/19 06:34:17;;;;;;;13.27;3.93;;;4.00;99.90;;;;;;5014552;28;20182;-57
2022/11/19 06:36:43;;;;;;;13.77;4.43;;;3.90;99.90;;;;;;5019351;28;20268;-57
2022/11/19 06:39:09;;;;;;;23.03;4.40;;;4.00;99.90;;;;;;5026567;28;20512;-57
2022/11/19 06:41:35;;;;;;;18.60;4.97;;;;;;;;;;5019568;28;20703;-57
2022/11/19 06:44:00;;;;;;;16.83;4.90;;;4.20;99.90;;;;;;5017745;28;20555;-57
2022/11/19 06:46:26;;;;;;;16.37;4.77;;;4.00;99.90;;;;;;5010669;28;20207;-57
2022/11/19 06:48:52;;;;;;;15.57;4.30;;;4.30;99.90;;;;;;5019959;28;20262;-57
2022/11/19 06:51:17;;;;;;;14.57;4.60;;;4.00;99.90;;;;;;5014106;28;20171;-57
2022/11/19 06:53:43;;;;;;;12.27;4.77;;;4.10;99.90;;;;;;5014300;28;20191;-57
2022/11/19 06:56:09;;;;;;;17.30;4.90;;;;;;;;;;5014113;28;20210;-57
2022/11/19 06:58:35;;;;;;;10.37;4.17;;;;;;;;;;5014186;28;20625;-57
2022/11/19 07:01:01;;;;;;;16.07;4.70;;;3.90;99.90;;;;;;5014138;28;20175;-57
2022/11/19 07:03:27;;;;;;;20.07;4.80;;;4.20;99.90;;;;;;5024880;28;20174;-57
2022/11/19 07:06:01;;;;;;;11.80;4.50;;;3.90;99.90;;;;;;5023008;28;20214;-58
2022/11/19 07:08:27;;;;;;;14.57;4.53;;;4.10;99.90;;;;;;5015724;28;20165;-57
2022/11/19 07:10:52;;;;;;;15.67;5.17;;;4.30;99.90;;;;;;5016361;28;20534;-57
2022/11/19 07:13:18;;;;;;;14.17;4.70;;;4.10;99.90;;;;;;5025628;28;20269;-57
2022/11/19 07:15:44;;;;;;;17.37;4.70;;;4.00;99.90;;;;;;5021103;28;20596;-57
2022/11/19 07:18:09;;;;;;;20.50;4.30;;;3.90;99.90;;;;;;5013666;28;20237;-57
2022/11/19 07:20:35;;;;;;;16.67;4.10;;;3.80;99.90;;;;;;5033670;28;20637;-57
2022/11/19 07:23:01;;;;;;;18.23;5.03;;;3.70;99.90;;;;;;5021684;28;20233;-58
2022/11/19 07:25:27;;;;;;;13.37;4.40;;;4.00;99.90;;;;;;5033293;28;20185;-57
2022/11/19 07:27:53;;;;;;;17.70;4.97;;;3.80;99.90;;;;;;5033316;28;20162;-57
2022/11/19 07:30:18;;;;;;;18.77;4.53;;;4.30;99.90;;;;;;5032610;28;20182;-57
2022/11/19 07:32:44;;;;;;;17.07;5.00;;;3.90;99.90;;;;;;5033037;28;20262;-57
2022/11/19 07:35:10;;;;;;;20.47;4.53;;;3.80;99.90;;;;;;5031317;28;20170;-57
2022/11/19 07:37:36;;;;;;;14.07;4.63;;;;;;;;;;5032595;28;20747;-58
2022/11/19 07:40:03;;;;;;;13.90;4.73;;;3.90;99.90;;;;;;5024455;28;20285;-57
2022/11/19 07:45:15;;;;;;;14.77;4.40;;;3.70;99.90;;;;;;5022206;28;20270;-57
2022/11/19 07:47:40;;;;;;;17.97;5.17;;;3.70;99.90;;;;;;5025129;28;20338;-60
2022/11/19 07:50:06;;;;;;;18.43;4.27;;;4.20;99.90;;;;;;5014193;28;20689;-61
2022/11/19 07:52:32;;;;;;;23.33;4.90;;;;;;;;;;5021368;28;20610;-59
2022/11/19 07:54:58;;;;;;;18.70;4.80;;;4.20;99.90;;;;;;5020319;28;20194;-60
2022/11/19 07:57:23;;;;;;;14.70;3.83;;;4.50;99.90;;;;;;5015520;28;20219;-60
2022/11/19 07:59:49;;;;;;;11.23;4.30;;;4.20;99.90;;;;;;5032530;28;20177;-59
2022/11/19 08:02:15;;;;;;;17.23;5.67;;;4.20;99.90;;;;;;5032213;28;20173;-59
2022/11/19 08:04:40;;;;;;;16.43;5.53;;;4.40;99.90;;;;;;5032623;28;20230;-59
2022/11/19 08:07:07;;;;;;;18.70;6.50;;;4.10;99.90;;;;;;5032541;28;20201;-59
2022/11/19 08:09:33;;;;;;;17.37;4.80;;;4.60;99.90;;;;;;5032490;28;20174;-59
2022/11/19 08:11:58;;;;;;;15.53;4.37;;;4.70;99.90;;;;;;5014214;28;20171;-59
2022/11/19 08:14:24;;;;;;;17.97;3.90;;;4.50;99.90;;;;;;5012767;28;20175;-59
2022/11/19 08:19:34;;;;;;;12.33;4.47;;;4.80;99.90;;;;;;5012384;28;20680;-59
2022/11/19 08:21:59;;;;;;;17.00;4.60;;;4.90;99.90;;;;;;5024467;28;20189;-59
2022/11/19 08:24:25;;;;;;;11.43;4.23;;;;;;;;;;5015230;28;20174;-59
2022/11/19 08:26:51;;;;;;;11.10;4.43;;;5.00;99.90;;;;;;5015966;28;20187;-59
2022/11/19 08:29:19;;;;;;;17.13;4.03;;;5.10;99.90;;;;;;5032206;28;20190;-59
2022/11/19 08:31:46;;;;;;;15.60;3.87;;;5.30;99.90;;;;;;5032112;28;20185;-59
2022/11/19 08:34:12;;;;;;;15.67;4.40;;;5.60;99.90;;;;;;5032042;28;20205;-59
2022/11/19 08:36:38;;;;;;;11.40;4.00;;;5.50;99.90;;;;;;5018051;28;20206;-59
2022/11/19 08:39:05;;;;;;;13.67;3.60;;;;;;;;;;5012578;28;20186;-59
2022/11/19 08:44:21;;;;;;;10.87;3.30;;;6.40;99.90;;;;;;5108825;28;20661;-57
2022/11/19 08:46:47;;;;;;;12.20;3.10;;;7.10;99.90;;;;;;5107981;28;20163;-59
2022/11/19 08:49:13;;;;;;;13.27;3.37;;;6.40;99.90;;;;;;5108073;28;20165;-58
2022/11/19 08:51:39;;;;;;;10.23;3.90;;;6.50;99.90;;;;;;5103756;28;20183;-57
2022/11/19 08:54:04;;;;;;;11.70;3.50;;;6.30;99.90;;;;;;5089973;28;20544;-57
2022/11/19 08:56:31;;;;;;;9.23;3.67;;;;;;;;;;5092901;28;20202;-59
2022/11/19 08:58:56;;;;;;;9.73;2.67;;;9.00;99.90;;;;;;5108678;28;20166;-57
2022/11/19 09:01:22;;;;;;;14.30;3.87;;;8.50;99.90;;;;;;5106796;28;20176;-58
2022/11/19 09:03:48;;;;;;;12.77;3.33;;;8.30;99.90;;;;;;5108640;28;20163;-58
2022/11/19 09:06:14;;;;;;;9.33;3.60;;;8.30;99.90;;;;;;5099754;28;20766;-58
2022/11/19 09:08:40;;;;;;;13.07;3.03;;;7.60;99.90;;;;;;5102610;28;20216;-58
2022/11/19 09:11:08;;;;;;;9.37;3.47;;;7.50;99.90;;;;;;5108282;28;20202;-58
2022/11/19 09:13:34;;;;;;;20.63;3.90;;;7.40;99.90;;;;;;5114360;28;20177;-58
2022/11/19 09:16:00;;;;;;;15.90;4.20;;;7.10;99.90;;;;;;5095539;28;20537;-58
2022/11/19 09:18:26;;;;;;;13.97;3.73;;;7.60;99.90;;;;;;5108241;28;20175;-58
2022/11/19 09:20:56;;;;;;;11.97;3.90;;;7.30;99.90;;;;;;5107854;28;20172;-57
2022/11/19 09:23:26;;;;;;;13.60;3.70;;;7.60;99.90;;;;;;5078410;28;20215;-57
2022/11/19 09:25:58;;;;;;;17.27;3.73;;;8.00;99.90;;;;;;5107650;28;20199;-57
2022/11/19 09:28:26;;;;;;;9.87;3.63;;;8.10;99.90;;;;;;5107523;28;20183;-57
2022/11/19 09:30:59;;;;;;;18.97;4.40;;;7.90;99.90;;;;;;5070826;28;20716;-57
2022/11/19 09:33:25;;;;;;;11.60;3.63;;;8.00;99.90;;;;;;5081924;28;20709;-57
2022/11/19 09:35:51;;;;;;;16.80;4.53;;;8.00;99.90;;;;;;5105963;28;20195;-54
2022/11/19 09:38:17;;;;;;;17.10;4.10;;;7.90;99.90;;;;;;5105501;28;20191;-56
2022/11/19 09:40:49;;;;;;;14.73;4.27;;;8.30;99.90;;;;;;5093195;28;20230;-58
2022/11/19 09:43:15;;;;;;;16.67;4.07;;;8.30;99.90;;;;;;5106625;28;20171;-55
2022/11/19 09:45:50;;;;;;;13.20;4.33;;;8.30;99.90;;;;;;5105472;28;20187;-56
2022/11/19 09:48:28;;;;;;;13.30;4.30;;;8.40;99.90;;;;;;5104928;28;20198;-57
2022/11/19 09:51:03;;;;;;;12.77;3.73;;;8.20;99.90;;;;;;5093866;28;20222;-56
2022/11/19 09:53:42;;;;;;;10.93;4.40;;;8.40;99.90;;;;;;5088364;28;20184;-56
2022/11/19 09:56:14;;;;;;;15.23;4.83;;;8.30;99.90;;;;;;5086765;28;20203;-56
2022/11/19 09:58:44;;;;;;;21.77;6.80;;;8.40;99.90;;;;;;5093120;28;20183;-56
2022/11/19 10:01:13;;;;;;;16.63;5.70;;;8.30;99.90;;;;;;5085989;28;20195;-56
2022/11/19 10:03:43;;;;;;;17.93;5.33;;;8.40;99.90;;;;;;5089694;28;20176;-56
2022/11/19 10:06:26;;;;;;;18.17;5.53;;;8.30;99.90;;;;;;5076169;28;20269;-56
2022/11/19 10:09:13;;;;;;;15.33;6.23;;;8.80;99.90;;;;;;5073408;28;20172;-56
2022/11/19 10:12:03;;;;;;;16.20;6.67;;;8.50;99.90;;;;;;5072994;28;20192;-56
2022/11/19 10:14:29;;;;;;;11.37;5.73;;;8.50;99.90;;;;;;5072543;28;20176;-56
2022/11/19 10:16:57;;;;;;;18.23;6.37;;;8.80;99.90;;;;;;5082283;28;20518;-56
2022/11/19 10:19:43;;;;;;;16.43;6.50;;;8.90;99.90;;;;;;5091258;28;20715;-56
2022/11/19 10:22:23;;;;;;;18.17;6.60;;;9.10;99.90;;;;;;5092806;28;20251;-55
2022/11/19 10:25:04;;;;;;;13.83;5.73;;;9.40;99.90;;;;;;5075026;28;20233;-56
2022/11/19 10:28:02;;;;;;;11.17;4.80;;;9.50;99.90;;;;;;5090988;28;20499;-56
2022/11/19 10:30:29;;;;;;;12.00;4.30;;;9.50;99.90;;;;;;5090393;28;20208;-57
2022/11/19 10:33:10;;;;;;;16.03;4.80;;;9.70;99.90;;;;;;5093113;28;20164;-56
2022/11/19 10:35:41;;;;;;;17.03;5.40;;;10.60;99.90;;;;;;5091496;28;20183;-56
2022/11/19 10:38:32;;;;;;;22.00;5.53;;;10.50;99.90;;;;;;5081610;28;20642;-56
2022/11/19 10:41:27;;;;;;;14.43;5.03;;;11.00;99.90;;;;;;5072506;28;20224;-56
2022/11/19 10:44:04;;;;;;;19.07;5.37;;;12.00;99.90;;;;;;5072339;28;20184;-56
2022/11/19 10:46:30;;;;;;;16.17;6.73;;;12.20;99.90;;;;;;5072444;28;20164;-56
2022/11/19 10:49:01;;;;;;;17.77;6.93;;;12.30;99.90;;;;;;5072367;28;20715;-56
2022/11/19 10:51:34;;;;;;;19.83;6.43;;;12.20;99.90;;;;;;5077049;28;20216;-56
2022/11/19 10:54:06;;;;;;;19.63;5.20;;;11.60;99.90;;;;;;5085210;28;20176;-56
2022/11/19 10:56:40;;;;;;;14.20;5.18;;;12.70;99.90;;;;;;5092459;28;20206;-56
2022/11/19 10:59:19;;;;;;;19.60;4.93;;;14.50;99.90;;;;;;5092747;28;20570;-56
2022/11/19 11:01:47;;;;;;;20.55;5.57;;;14.00;99.90;;;;;;5092711;28;20168;-56
2022/11/19 11:04:22;;;;;;;11.00;4.35;;;15.80;99.90;;;;;;5085436;28;20180;-56
2022/11/19 11:06:51;;;;;;;20.25;4.15;;;16.10;99.90;;;;;;5089888;28;20709;-55
2022/11/19 11:09:34;;;;;;;12.93;4.10;;;18.50;99.90;;;;;;5091455;28;20178;-57
2022/11/19 11:15:06;;;;;;;12.90;3.30;;;19.00;99.90;;;;;;5092082;28;20544;-56
2022/11/19 11:17:34;;;;;;;18.30;3.78;;;19.10;99.90;;;;;;5092116;28;20171;-56
2022/11/19 11:20:05;;;;;;;10.40;3.05;;;19.80;99.90;;;;;;5101509;28;20286;-57
2022/11/19 11:22:31;;;;;;;12.82;2.90;;;21.30;99.90;;;;;;5076213;28;20179;-55
2022/11/19 11:24:59;;;;;;;9.63;2.83;;;21.60;99.90;;;;;;5067611;28;20196;-57
2022/11/19 11:27:33;;;;;;;13.40;3.47;;;24.00;99.90;;;;;;5091250;28;20289;-57
2022/11/19 11:30:24;;;;;;;15.55;4.57;;;23.70;99.90;;;;;;5082690;28;20298;-57
2022/11/19 11:32:51;;;;;;;13.57;3.80;;;24.20;99.90;;;;;;5087671;28;20611;-57
2022/11/19 11:35:37;;;;;;;16.83;3.88;;;24.50;99.90;;;;;;5091845;28;20307;-57
2022/11/19 11:38:04;;;;;;;9.80;3.35;;;24.50;99.90;;;;;;5081132;28;20180;-57
2022/11/19 11:40:30;;;;;;;11.57;4.05;;;25.40;99.90;;;;;;5088633;28;20251;-57
2022/11/19 11:42:56;;;;;;;12.43;4.13;;;25.80;99.90;;;;;;5075259;28;20245;-56
2022/11/19 11:45:34;;;;;;;13.07;3.80;;;26.20;99.90;;;;;;5071195;28;20718;-56
2022/11/19 11:48:06;;;;;;;12.85;3.88;;;26.60;99.90;;;;;;5071303;28;20172;-57
2022/11/19 11:50:34;;;;;;;12.52;3.20;;;26.30;99.90;;;;;;5075408;28;20247;-56
2022/11/19 11:53:07;;;;;;;11.73;3.40;;;26.10;99.90;;;;;;5076794;28;20175;-56
2022/11/19 11:55:33;;;;;;;11.52;3.10;;;26.70;99.90;;;;;;5071833;28;20306;-56
2022/11/19 11:58:26;;;;;;;9.63;2.38;;;27.10;99.90;;;;;;5084328;28;20199;-56
2022/11/19 12:01:17;;;;;;;10.20;3.10;;;27.40;99.90;;;;;;5071227;28;20306;-56
2022/11/19 12:03:54;;;;;;;11.55;2.67;;;27.50;99.90;;;;;;5069268;28;20203;-56
2022/11/19 12:06:53;;;;;;;10.45;2.40;;;26.70;99.90;;;;;;5069424;28;20199;-56
2022/11/19 12:09:31;;;;;;;8.38;2.20;;;27.60;99.90;;;;;;5024918;28;20192;-56
2022/11/19 12:12:13;;;;;;;11.13;2.22;;;28.00;99.90;;;;;;5069995;28;20578;-56
2022/11/19 12:15:08;;;;;;;10.63;2.40;;;27.70;99.90;;;;;;5069726;28;20219;-56
2022/11/19 12:17:37;;;;;;;8.73;2.20;;;27.90;99.90;;;;;;5069840;28;20190;-57
2022/11/19 12:20:21;;;;;;;9.95;2.47;;;28.60;99.90;;;;;;5069266;28;20204;-57
2022/11/19 12:23:05;;;;;;;9.68;2.20;;;28.30;99.90;;;;;;5069098;28;20168;-57
2022/11/19 12:25:35;;;;;;;12.27;2.05;;;28.10;99.90;;;;;;5068939;28;20188;-57
2022/11/19 12:28:06;;;;;;;11.20;1.90;;;28.90;99.90;;;;;;5069060;28;20191;-57
2022/11/19 12:31:03;;;;;;;7.80;1.90;;;28.70;99.90;;;;;;5069621;28;20172;-57
2022/11/19 12:33:31;;;;;;;10.20;2.00;;;27.40;99.90;;;;;;5070345;28;20184;-56
2022/11/19 12:36:03;;;;;;;9.77;1.67;;;25.80;99.90;;;;;;5070910;28;20180;-56
2022/11/19 12:38:44;;;;;;;9.13;1.75;;;26.20;99.90;;;;;;5070911;28;20646;-56
2022/11/19 12:41:31;;;;;;;7.53;2.20;;;27.00;99.90;;;;;;5070601;28;20580;-56
2022/11/19 12:44:02;;;;;;;9.95;2.00;;;26.30;99.90;;;;;;5070913;28;20212;-56
2022/11/19 12:46:43;;;;;;;6.55;1.55;;;24.80;99.90;;;;;;5071012;28;20177;-56
2022/11/19 12:49:17;;;;;;;5.53;1.80;;;24.50;99.90;;;;;;5070892;28;20168;-56
2022/11/19 12:52:14;;;;;;;7.07;1.52;;;24.50;99.90;;;;;;5070704;28;20309;-56
2022/11/19 12:55:14;;;;;;;10.23;2.03;;;24.80;99.90;;;;;;5070745;28;20385;-58
2022/11/19 12:58:02;;;;;;;8.43;1.73;;;24.30;99.90;;;;;;5044419;28;20222;-56
2022/11/19 13:00:29;;;;;;;11.23;1.95;;;24.50;99.90;;;;;;5070540;28;20218;-56
2022/11/19 13:03:13;;;;;;;5.55;1.52;;;23.50;99.90;;;;;;5070651;28;20176;-56
2022/11/19 13:06:04;;;;;;;11.43;1.88;;;22.10;99.90;;;;;;5070838;28;20173;-56
2022/11/19 13:08:50;;;;;;;7.53;1.55;;;21.30;99.90;;;;;;5070575;28;20639;-56
2022/11/19 13:11:21;;;;;;;6.60;1.73;;;21.80;99.90;;;;;;5070496;28;20172;-56
2022/11/19 13:14:13;;;;;;;11.68;2.00;;;22.10;99.90;;;;;;5070455;28;20169;-56
2022/11/19 13:16:41;;;;;;;6.25;1.67;;;21.80;99.90;;;;;;5048068;28;20547;-55
2022/11/19 13:19:18;;;;;;;8.98;2.50;;;21.40;99.90;;;;;;5088688;28;20542;-56
2022/11/19 13:21:52;;;;;;;10.18;2.45;;;19.90;99.90;;;;;;5084298;28;20223;-55
2022/11/19 13:24:41;;;;;;;10.10;2.45;;;18.90;99.90;;;;;;5070507;28;20255;-56
2022/11/19 13:27:12;;;;;;;12.07;2.38;;;17.70;99.90;;;;;;5071806;28;20165;-56
2022/11/19 13:30:06;;;;;;;11.45;2.55;;;16.50;99.90;;;;;;5074185;28;20164;-55
2022/11/19 13:32:39;;;;;;;17.23;2.45;;;15.60;99.90;;;;;;5065883;28;20189;-55
2022/11/19 13:35:22;;;;;;;17.08;2.22;;;14.60;99.90;;;;;;5073920;28;20646;-56
2022/11/19 13:38:17;;;;;;;7.70;2.38;;;14.60;99.90;;;;;;5074094;28;20187;-55
2022/11/19 13:41:00;;;;;;;13.77;2.30;;;13.30;99.90;;;;;;5073772;28;20228;-55
2022/11/19 13:46:17;;;;;;;6.80;2.10;;;13.50;99.90;;;;;;5074158;28;20182;-56